Time;durP1;ratioP1;P1;durP2;ratioP2;P2;SDS_P1;SDS_P2;PMS_P1;PMS_P2;Temp;Humidity;BMP_temperature;BMP_pressure;BME280_temperature;BME280_humidity;BME280_pressure;Samples;Min_cycle;Max_cycle;Signal;HPM_P1;HPM_P2
2023/03/21 00:00:59;;;;;;;57.17;23.50;;;;;;;8.35;100.00;101595.66;5069849;28;20028;-49
2023/03/21 00:03:25;;;;;;;56.55;23.98;;;;;;;8.34;100.00;101593.94;5069570;28;20036;-50
2023/03/21 00:05:52;;;;;;;61.70;27.17;;;;;;;8.38;100.00;101591.81;5069529;28;20116;-50
2023/03/21 00:08:21;;;;;;;56.87;24.87;;;;;;;8.35;100.00;101580.41;5069570;28;20025;-50
2023/03/21 00:10:47;;;;;;;59.72;25.52;;;;;;;8.35;100.00;101572.34;5069764;28;20078;-49
2023/03/21 00:13:14;;;;;;;55.63;23.55;;;;;;;8.36;100.00;101578.56;5069393;28;20546;-49
2023/03/21 00:15:49;;;;;;;55.47;25.88;;;;;;;8.35;100.00;101582.25;5069518;28;20498;-48
2023/03/21 00:18:16;;;;;;;52.70;24.15;;;;;;;8.35;100.00;101582.25;5069481;28;20116;-48
2023/03/21 00:20:46;;;;;;;55.13;23.63;;;;;;;8.34;100.00;101580.53;5069240;28;20028;-49
2023/03/21 00:23:11;;;;;;;53.25;24.58;;;;;;;8.33;100.00;101570.81;5069425;28;20086;-50
2023/03/21 00:25:37;;;;;;;54.08;24.38;;;;;;;8.34;100.00;101572.47;5078127;28;20043;-50
2023/03/21 00:28:02;;;;;;;63.10;25.77;;;;;;;8.33;100.00;101568.13;5089498;28;20032;-49
2023/03/21 00:30:28;;;;;;;53.67;26.30;;;;;;;8.32;100.00;101564.59;5087653;28;20047;-51
2023/03/21 00:32:53;;;;;;;60.42;26.20;;;;;;;8.30;100.00;101573.78;5071736;28;20028;-53
2023/03/21 00:35:19;;;;;;;58.10;26.65;;;;;;;8.28;100.00;101565.03;5089023;28;20107;-50
2023/03/21 00:37:45;;;;;;;61.97;26.27;;;;;;;8.27;100.00;101566.06;5070905;28;20036;-49
2023/03/21 00:40:11;;;;;;;60.72;26.73;;;;;;;8.25;100.00;101565.34;5089313;28;20080;-50
2023/03/21 00:42:37;;;;;;;62.35;26.00;;;;;;;8.24;100.00;101566.31;5091569;28;20048;-51
2023/03/21 00:45:03;;;;;;;63.25;25.05;;;;;;;8.27;100.00;101560.69;5072726;28;20132;-49
2023/03/21 00:47:29;;;;;;;63.28;26.73;;;;;;;8.24;100.00;101566.31;5073244;28;20481;-53
2023/03/21 00:49:54;;;;;;;63.05;28.02;;;;;;;8.24;100.00;101555.59;5082360;28;20103;-49
2023/03/21 00:52:20;;;;;;;62.83;27.25;;;;;;;8.22;100.00;101560.28;5072945;28;20024;-50
2023/03/21 00:54:46;;;;;;;72.45;27.45;;;;;;;8.22;100.00;101557.59;5072686;28;20131;-50
2023/03/21 00:57:11;;;;;;;60.97;26.00;;;;;;;8.23;100.00;101559.28;5072847;28;20453;-49
2023/03/21 00:59:36;;;;;;;68.85;26.17;;;;;;;8.24;100.00;101547.56;5078949;28;20063;-51
2023/03/21 01:02:06;;;;;;;56.60;25.42;;;;;;;8.25;100.00;101554.63;5092777;28;20376;-54
2023/03/21 01:04:32;;;;;;;54.28;24.83;;;;;;;8.26;100.00;101551.78;5076695;28;20024;-50
2023/03/21 01:06:57;;;;;;;63.03;23.70;;;;;;;8.30;100.00;101546.97;5090493;28;20024;-52
2023/03/21 01:09:24;;;;;;;66.10;24.60;;;;;;;8.29;100.00;101542.59;5092295;28;20043;-51
2023/03/21 01:11:50;;;;;;;59.83;21.85;;;;;;;8.28;100.00;101544.44;5092746;28;20028;-49
2023/03/21 01:14:17;;;;;;;54.65;22.27;;;;;;;8.30;100.00;101534.41;5073966;28;20516;-49
2023/03/21 01:16:43;;;;;;;51.70;22.08;;;;;;;8.35;100.00;101533.97;5092594;28;20086;-50
2023/03/21 01:19:11;;;;;;;49.38;21.90;;;;;;;8.36;100.00;101524.91;5086189;28;20506;-50
2023/03/21 01:21:36;;;;;;;58.30;21.30;;;;;;;8.36;100.00;101527.59;5072672;28;20051;-50
2023/03/21 01:24:02;;;;;;;45.53;20.38;;;;;;;8.35;100.00;101517.88;5087136;28;20074;-50
2023/03/21 01:26:27;;;;;;;56.25;20.23;;;;;;;8.36;100.00;101516.88;5092512;28;20114;-50
2023/03/21 01:28:52;;;;;;;44.25;19.15;;;;;;;8.39;100.00;101508.53;5091766;28;20086;-49
2023/03/21 01:31:18;;;;;;;55.80;20.38;;;;;;;8.38;100.00;101504.16;5092463;28;20031;-49
2023/03/21 01:33:43;;;;;;;42.50;18.35;;;;;;;8.41;100.00;101505.72;5087411;28;20044;-50
2023/03/21 01:36:15;;;;;;;52.05;19.70;;;;;;;8.41;100.00;101506.56;5092235;28;20029;-49
2023/03/21 01:38:41;;;;;;;43.65;18.73;;;;;;;8.40;100.00;101496.84;5091744;28;20028;-50
2023/03/21 01:41:07;;;;;;;40.38;18.25;;;;;;;8.42;100.00;101502.88;5090322;28;20028;-49
2023/03/21 01:43:34;;;;;;;44.40;19.35;;;;;;;8.42;100.00;101500.19;5082984;28;20123;-49
2023/03/21 01:46:09;;;;;;;51.05;21.23;;;;;;;8.42;100.00;101493.97;5071898;28;20382;-49
2023/03/21 01:48:36;;;;;;;38.17;19.88;;;;;;;8.42;100.00;101492.13;5073029;28;20029;-50
2023/03/21 01:51:02;;;;;;;50.15;21.10;;;;;;;8.45;100.00;101497.22;5053971;28;20399;-50
2023/03/21 01:53:29;;;;;;;42.63;21.27;;;;;;;8.45;100.00;101499.03;5079186;28;20020;-49
2023/03/21 01:55:56;;;;;;;51.53;21.33;;;;;;;8.44;100.00;101495.53;5091675;28;20039;-50
2023/03/21 01:58:22;;;;;;;49.53;23.40;;;;;;;8.47;100.00;101483.66;5061857;28;20035;-50
2023/03/21 02:00:49;;;;;;;44.20;20.98;;;;;;;8.47;100.00;101486.31;5053699;28;20028;-48
2023/03/21 02:03:15;;;;;;;40.78;20.98;;;;;;;8.45;100.00;101491.84;5073788;28;20021;-49
2023/03/21 02:05:57;;;;;;;53.38;22.85;;;;;;;8.39;100.00;101481.72;5053373;28;20136;-51
2023/03/21 02:08:22;;;;;;;44.13;22.20;;;;;;;8.38;100.00;101482.69;5054242;28;20124;-50
2023/03/21 02:10:48;;;;;;;48.83;22.67;;;;;;;8.37;100.00;101480.97;5071071;28;20422;-48
2023/03/21 02:13:14;;;;;;;44.17;21.20;;;;;;;8.35;100.00;101475.78;5052952;28;20032;-48
2023/03/21 02:15:44;;;;;;;42.92;20.50;;;;;;;8.34;100.00;101473.25;5072081;28;20024;-49
2023/03/21 02:18:18;;;;;;;45.97;21.30;;;;;;;8.32;100.00;101476.09;5071301;28;20025;-51
2023/03/21 02:20:53;;;;;;;53.60;22.60;;;;;;;8.30;100.00;101477.25;5053244;28;20033;-50
2023/03/21 02:23:56;;;;;;;59.70;25.02;;;;;;;8.26;100.00;101465.13;5071131;28;20039;-47
2023/03/21 02:26:28;;;;;;;56.53;24.63;;;;;;;8.24;100.00;101467.97;4969833;28;20066;-48
2023/03/21 02:29:23;;;;;;;56.60;25.27;;;;;;;8.21;100.00;101462.06;5053592;28;20036;-48
2023/03/21 02:32:30;;;;;;;57.08;24.33;;;;;;;8.16;100.00;101458.97;5070754;28;20051;-47
2023/03/21 02:35:10;;;;;;;57.75;25.40;;;;;;;8.18;100.00;101462.34;5070622;28;20052;-48
2023/03/21 02:37:40;;;;;;;57.83;26.13;;;;;;;8.16;100.00;101459.81;5070718;28;20056;-49
2023/03/21 02:40:19;;;;;;;62.75;26.13;;;;;;;8.12;100.00;101451.25;5071666;28;20039;-47
2023/03/21 02:42:59;;;;;;;59.00;25.63;;;;;;;8.11;100.00;101449.56;5066771;28;20034;-48
2023/03/21 02:45:27;;;;;;;64.90;25.00;;;;;;;8.09;100.00;101456.91;5070773;28;20480;-47
2023/03/21 02:48:03;;;;;;;56.78;24.45;;;;;;;8.09;100.00;101450.72;5070824;28;20021;-48
2023/03/21 02:50:29;;;;;;;55.97;22.20;;;;;;;8.06;100.00;101453.69;5052595;28;20347;-49
2023/03/21 02:52:55;;;;;;;54.38;24.15;;;;;;;8.04;100.00;101456.50;5070141;28;20051;-48
2023/03/21 02:55:24;;;;;;;59.63;23.55;;;;;;;8.02;100.00;101447.78;5052546;28;20466;-47
2023/03/21 02:57:50;;;;;;;66.22;23.63;;;;;;;8.04;100.00;101450.31;5079379;28;20490;-49
2023/03/21 03:00:19;;;;;;;68.88;22.02;;;;;;;8.03;100.00;101454.84;5072813;28;20024;-50
2023/03/21 03:02:44;;;;;;;58.08;23.00;;;;;;;8.04;100.00;101456.50;5072182;28;20039;-49
2023/03/21 03:05:16;;;;;;;63.80;22.83;;;;;;;8.01;100.00;101448.78;5090472;28;20032;-49
2023/03/21 03:07:48;;;;;;;73.65;23.20;;;;;;;8.02;100.00;101450.44;5077933;28;20029;-49
2023/03/21 03:10:20;;;;;;;58.78;21.38;;;;;;;8.02;100.00;101455.81;5052273;28;20035;-49
2023/03/21 03:12:49;;;;;;;61.45;22.40;;;;;;;8.02;100.00;101447.78;5052279;28;20029;-51
2023/03/21 03:15:27;;;;;;;58.67;22.33;;;;;;;8.02;100.00;101452.28;5082607;28;20067;-49
2023/03/21 03:18:06;;;;;;;59.25;23.33;;;;;;;8.01;100.00;101451.47;5084798;28;20112;-50
2023/03/21 03:20:49;;;;;;;65.72;22.80;;;;;;;8.02;100.00;101452.28;5072158;28;20097;-49
2023/03/21 03:23:31;;;;;;;65.97;22.58;;;;;;;8.00;100.00;101446.22;5071963;28;20591;-49
2023/03/21 03:26:07;;;;;;;60.53;21.30;;;;;;;7.99;100.00;101445.41;5089809;28;20135;-49
2023/03/21 03:28:37;;;;;;;59.85;21.30;;;;;;;7.99;100.00;101442.72;5090234;28;20032;-50
2023/03/21 03:31:03;;;;;;;64.50;20.88;;;;;;;7.99;100.00;101442.72;5068007;28;20021;-49
2023/03/21 03:33:29;;;;;;;56.58;21.02;;;;;;;7.99;100.00;101442.72;5064164;28;20042;-49
2023/03/21 03:35:56;;;;;;;56.03;21.05;;;;;;;7.99;100.00;101445.41;5069786;28;20029;-49
2023/03/21 03:38:23;;;;;;;62.63;20.70;;;;;;;8.00;100.00;101433.66;5069987;28;20033;-49
2023/03/21 03:40:54;;;;;;;54.53;19.83;;;;;;;8.00;100.00;101439.03;5051530;28;20055;-49
2023/03/21 03:43:34;;;;;;;52.78;19.98;;;;;;;8.01;100.00;101437.22;5051736;28;20080;-49
2023/03/21 03:46:09;;;;;;;49.65;18.40;;;;;;;7.99;100.00;101434.69;5052046;28;20160;-49
2023/03/21 03:48:55;;;;;;;52.38;20.02;;;;;;;7.99;100.00;101432.00;5052223;28;20086;-50
2023/03/21 03:51:28;;;;;;;60.13;20.13;;;;;;;8.01;100.00;101434.53;5051839;28;20032;-50
2023/03/21 03:53:59;;;;;;;51.50;19.85;;;;;;;7.96;100.00;101426.09;5053540;28;20116;-49
2023/03/21 03:56:26;;;;;;;54.28;19.80;;;;;;;7.98;100.00;101424.09;5052101;28;20170;-50
2023/03/21 03:58:51;;;;;;;49.63;19.20;;;;;;;7.98;100.00;101422.28;5067341;28;20097;-49
2023/03/21 04:01:16;;;;;;;50.20;18.83;;;;;;;7.96;100.00;101416.22;5089008;28;20044;-49
2023/03/21 04:03:44;;;;;;;66.57;19.98;;;;;;;7.96;100.00;101413.53;5089438;28;20474;-49
2023/03/21 04:06:09;;;;;;;54.63;20.15;;;;;;;7.99;100.00;101413.22;5071892;28;20024;-50
2023/03/21 04:08:36;;;;;;;50.13;19.10;;;;;;;7.99;100.00;101409.72;5088092;28;20471;-51
2023/03/21 04:11:02;;;;;;;58.00;20.95;;;;;;;8.00;100.00;101414.91;5089531;28;20493;-50
2023/03/21 04:13:27;;;;;;;54.85;20.02;;;;;;;7.99;100.00;101415.91;5071760;28;20032;-49
2023/03/21 04:15:52;;;;;;;54.40;19.80;;;;;;;7.99;100.00;101399.84;5086666;28;20066;-49
2023/03/21 04:18:18;;;;;;;59.03;19.63;;;;;;;7.98;100.00;101402.66;5073194;28;20020;-49
2023/03/21 04:20:43;;;;;;;55.15;19.55;;;;;;;7.98;100.00;101402.66;5073137;28;20103;-50
2023/03/21 04:23:10;;;;;;;49.45;18.77;;;;;;;7.97;100.00;101393.78;5073517;28;20024;-49
2023/03/21 04:25:36;;;;;;;53.70;20.42;;;;;;;7.96;100.00;101389.41;5087539;28;20034;-49
2023/03/21 04:28:02;;;;;;;53.33;19.90;;;;;;;7.96;100.00;101400.13;5085208;28;20051;-50
2023/03/21 04:30:27;;;;;;;59.38;20.63;;;;;;;7.96;100.00;101389.41;5073093;28;20431;-49
2023/03/21 04:32:55;;;;;;;50.10;19.67;;;;;;;7.98;100.00;101395.47;5089872;28;20165;-50
2023/03/21 04:35:21;;;;;;;54.05;20.70;;;;;;;7.98;100.00;101382.06;5093190;28;20957;-50
2023/03/21 04:37:46;;;;;;;46.92;18.92;;;;;;;8.00;100.00;101376.53;5092893;28;20016;-51
2023/03/21 04:40:16;;;;;;;45.20;19.15;;;;;;;8.01;100.00;101380.94;5080039;28;20033;-50
2023/03/21 04:42:42;;;;;;;53.60;19.23;;;;;;;8.03;100.00;101390.50;5084510;28;20043;-52
2023/03/21 04:45:08;;;;;;;45.58;18.73;;;;;;;8.03;100.00;101378.91;5092718;28;20031;-50
2023/03/21 04:47:33;;;;;;;48.72;18.65;;;;;;;8.04;100.00;101377.94;5088966;28;20046;-49
2023/03/21 04:49:58;;;;;;;50.75;20.20;;;;;;;8.06;100.00;101373.28;5080780;28;20032;-50
2023/03/21 04:52:24;;;;;;;51.60;19.20;;;;;;;8.09;100.00;101368.44;5072789;28;20031;-52
2023/03/21 04:54:49;;;;;;;56.28;18.83;;;;;;;8.11;100.00;101358.41;5072720;28;20479;-49
2023/03/21 04:57:15;;;;;;;57.50;20.48;;;;;;;8.17;100.00;101356.13;5059675;28;20024;-50
2023/03/21 04:59:40;;;;;;;45.80;17.98;;;;;;;8.24;100.00;101354.47;5093196;28;20035;-50
2023/03/21 05:02:06;;;;;;;54.53;19.40;;;;;;;8.23;100.00;101350.13;5075243;28;20040;-50
2023/03/21 05:04:31;;;;;;;48.20;19.83;;;;;;;8.21;100.00;101352.13;5078756;28;20036;-50
2023/03/21 05:06:57;;;;;;;46.47;18.63;;;;;;;8.18;100.00;101347.91;5087823;28;20036;-49
2023/03/21 05:09:23;;;;;;;48.70;18.25;;;;;;;8.17;100.00;101345.38;5071245;28;20060;-50
2023/03/21 05:11:49;;;;;;;48.95;19.17;;;;;;;8.19;100.00;101352.28;5070969;28;20197;-49
2023/03/21 05:14:17;;;;;;;46.72;19.17;;;;;;;8.17;100.00;101348.91;5070833;28;20017;-49
2023/03/21 05:16:47;;;;;;;44.35;17.40;;;;;;;8.17;100.00;101348.91;5082591;28;20325;-50
2023/03/21 05:19:13;;;;;;;44.53;17.67;;;;;;;8.17;100.00;101351.59;5091082;28;20035;-50
2023/03/21 05:21:42;;;;;;;49.00;16.88;;;;;;;8.17;100.00;101348.06;5090439;28;20054;-49
2023/03/21 05:24:11;;;;;;;44.13;17.38;;;;;;;8.18;100.00;101349.75;5090694;28;20035;-51
2023/03/21 05:26:37;;;;;;;49.88;16.98;;;;;;;8.18;100.00;101345.22;5086893;28;20399;-52
2023/03/21 05:29:03;;;;;;;47.33;16.92;;;;;;;8.21;100.00;101344.91;5076448;28;20393;-51
2023/03/21 05:31:28;;;;;;;58.22;17.90;;;;;;;8.19;100.00;101341.56;5053720;28;20103;-50
2023/03/21 05:33:54;;;;;;;39.90;16.13;;;;;;;8.19;100.00;101351.41;5076528;28;20079;-50
2023/03/21 05:36:19;;;;;;;51.67;17.50;;;;;;;8.19;100.00;101346.06;5092240;28;20024;-51
2023/03/21 05:38:45;;;;;;;43.90;16.13;;;;;;;8.18;100.00;101344.38;5090263;28;20122;-53
2023/03/21 05:41:14;;;;;;;52.50;17.80;;;;;;;8.22;100.00;101341.25;5092665;28;20497;-51
2023/03/21 05:43:40;;;;;;;43.72;16.25;;;;;;;8.25;100.00;101345.47;5083961;28;20067;-49
2023/03/21 05:46:06;;;;;;;49.50;16.88;;;;;;;8.25;100.00;101350.81;5073521;28;20418;-50
2023/03/21 05:48:31;;;;;;;39.05;15.70;;;;;;;8.26;100.00;101333.72;5072529;28;20024;-52
2023/03/21 05:50:56;;;;;;;47.90;14.85;;;;;;;8.27;100.00;101330.91;5072204;28;20471;-49
2023/03/21 05:53:22;;;;;;;45.60;16.00;;;;;;;8.26;100.00;101339.09;5071673;28;20161;-50
2023/03/21 05:55:47;;;;;;;49.10;14.40;;;;;;;8.29;100.00;101336.09;5065298;28;20028;-52
2023/03/21 05:58:12;;;;;;;50.53;15.15;;;;;;;8.29;100.00;101334.28;5071725;28;20031;-50
2023/03/21 06:00:38;;;;;;;46.05;14.27;;;;;;;8.32;100.00;101327.72;5073545;28;20116;-51
2023/03/21 06:03:03;;;;;;;34.22;14.27;;;;;;;8.34;100.00;101329.25;5078066;28;20050;-52
2023/03/21 06:05:28;;;;;;;42.22;14.13;;;;;;;8.34;100.00;101333.78;5073212;28;20111;-51
2023/03/21 06:07:54;;;;;;;44.60;14.73;;;;;;;8.34;100.00;101326.56;5087198;28;20039;-51
2023/03/21 06:10:19;;;;;;;44.28;14.75;;;;;;;8.34;100.00;101334.63;5075316;28;20020;-50
2023/03/21 06:12:45;;;;;;;57.40;15.27;;;;;;;8.34;100.00;101339.16;5075984;28;20556;-52
2023/03/21 06:15:11;;;;;;;42.28;14.85;;;;;;;8.30;100.00;101332.44;5074684;28;20028;-53
2023/03/21 06:17:36;;;;;;;46.63;15.75;;;;;;;8.26;100.00;101333.72;5072259;28;20036;-58
2023/03/21 06:20:05;;;;;;;36.58;15.07;;;;;;;8.23;100.00;101340.25;5054607;28;20060;-52
2023/03/21 06:22:31;;;;;;;47.72;15.23;;;;;;;8.22;100.00;101335.88;5073445;28;20067;-52
2023/03/21 06:24:57;;;;;;;41.63;15.13;;;;;;;8.18;100.00;101334.50;5074770;28;20068;-51
2023/03/21 06:27:23;;;;;;;41.20;15.90;;;;;;;8.18;100.00;101334.50;5070569;28;20040;-51
2023/03/21 06:29:48;;;;;;;48.22;16.27;;;;;;;8.19;100.00;101351.41;5078161;28;20059;-50
2023/03/21 06:32:13;;;;;;;45.92;16.55;;;;;;;8.17;100.00;101337.34;5069699;28;20086;-53
2023/03/21 06:34:39;;;;;;;43.10;16.73;;;;;;;8.13;100.00;101337.63;5070432;28;20131;-57
2023/03/21 06:37:04;;;;;;;51.97;17.02;;;;;;;8.13;100.00;101348.34;5082857;28;20055;-55
2023/03/21 06:39:30;;;;;;;48.58;16.45;;;;;;;8.09;100.00;101347.00;5071779;28;20083;-56
2023/03/21 06:41:56;;;;;;;64.38;17.13;;;;;;;8.06;100.00;101347.31;5081552;28;20039;-56
2023/03/21 06:44:23;;;;;;;49.70;17.00;;;;;;;8.02;100.00;101343.22;5075985;28;20041;-54
2023/03/21 06:46:48;;;;;;;51.83;17.10;;;;;;;7.99;100.00;101346.22;5070579;28;20024;-51
2023/03/21 06:49:14;;;;;;;55.25;17.73;;;;;;;7.96;100.00;101351.91;5082014;28;20074;-51
2023/03/21 06:51:39;;;;;;;35.95;14.50;;;;;;;7.97;100.00;101347.38;5085510;28;20028;-51
2023/03/21 06:54:04;;;;;;;41.92;14.90;;;;;;;7.90;100.00;101344.47;5071437;28;20024;-49
2023/03/21 06:56:30;;;;;;;41.60;14.35;;;;;;;7.91;100.00;101335.44;5076774;28;20044;-51
2023/03/21 06:58:55;;;;;;;38.28;14.40;;;;;;;7.89;100.00;101326.69;5082904;28;20058;-49
2023/03/21 07:01:21;;;;;;;53.50;15.27;;;;;;;7.89;100.00;101324.00;5071072;28;20024;-49
2023/03/21 07:03:47;;;;;;;57.30;16.42;;;;;;;7.91;100.00;101327.38;5085213;28;20028;-48
2023/03/21 07:06:12;;;;;;;48.47;18.25;;;;;;;7.91;100.00;101327.38;5073369;28;20422;-48
2023/03/21 07:08:39;;;;;;;51.47;17.38;;;;;;;7.92;100.00;101329.06;5070365;28;20035;-48
2023/03/21 07:11:05;;;;;;;58.53;18.67;;;;;;;7.93;100.00;101336.13;5073176;28;20082;-49
2023/03/21 07:13:31;;;;;;;52.63;19.08;;;;;;;7.94;100.00;101332.44;5083882;28;20115;-48
2023/03/21 07:15:56;;;;;;;53.03;16.25;;;;;;;7.95;100.00;101325.22;5081924;28;20302;-51
2023/03/21 07:18:22;;;;;;;48.97;15.82;;;;;;;7.94;100.00;101319.03;5071945;28;20055;-49
2023/03/21 07:20:51;;;;;;;47.65;14.32;;;;;;;7.95;100.00;101320.72;5069699;28;20395;-47
2023/03/21 07:23:24;;;;;;;40.70;14.50;;;;;;;7.97;100.00;101320.56;5086594;28;20082;-49
2023/03/21 07:25:51;;;;;;;43.53;15.48;;;;;;;8.03;100.00;101326.16;5082543;28;20432;-49
2023/03/21 07:28:17;;;;;;;45.45;16.20;;;;;;;8.17;100.00;101321.25;5070330;28;20372;-52
2023/03/21 07:30:43;;;;;;;44.25;17.45;;;;;;;8.25;100.00;101314.13;5075028;28;20047;-50
2023/03/21 07:33:08;;;;;;;48.35;18.23;;;;;;;8.21;100.00;101318.09;5075276;28;21294;-50
2023/03/21 07:35:35;;;;;;;44.60;16.33;;;;;;;8.22;100.00;101308.22;5074096;28;20035;-49
2023/03/21 07:38:01;;;;;;;50.60;16.90;;;;;;;8.19;100.00;101313.88;5075359;28;20089;-51
2023/03/21 07:40:26;;;;;;;50.03;17.30;;;;;;;8.21;100.00;101314.56;5082463;28;20510;-49
2023/03/21 07:42:51;;;;;;;58.00;17.40;;;;;;;8.21;100.00;101310.03;5071377;28;20024;-50
2023/03/21 07:45:20;;;;;;;41.22;16.38;;;;;;;8.23;100.00;101309.91;5078940;28;20377;-49
2023/03/21 07:47:46;;;;;;;49.25;17.33;;;;;;;8.29;100.00;101309.28;5069443;28;20056;-52
2023/03/21 07:50:12;;;;;;;50.67;16.13;;;;;;;8.30;100.00;101306.44;5075374;28;20340;-49
2023/03/21 07:52:37;;;;;;;51.15;15.70;;;;;;;8.35;100.00;101301.47;5077567;28;20368;-48
2023/03/21 07:55:03;;;;;;;47.15;15.25;;;;;;;8.50;100.00;101309.78;5055113;28;20118;-50
2023/03/21 07:57:29;;;;;;;47.17;16.00;;;;;;;8.63;100.00;101308.56;5074026;28;20028;-51
2023/03/21 07:59:54;;;;;;;37.10;15.20;;;;;;;8.61;100.00;101306.03;5084488;28;20035;-48
2023/03/21 08:02:19;;;;;;;42.90;16.05;;;;;;;8.66;100.00;101300.19;5079827;28;20028;-49
2023/03/21 08:04:45;;;;;;;44.42;14.57;;;;;;;8.66;100.00;101293.00;5089082;28;20107;-50
2023/03/21 08:07:11;;;;;;;38.88;14.20;;;;;;;8.73;100.00;101298.56;5077643;28;20024;-49
2023/03/21 08:09:36;;;;;;;51.50;13.15;;;;;;;8.73;100.00;101295.88;5079936;28;20024;-51
2023/03/21 08:12:03;;;;;;;42.38;13.73;;;;;;;8.73;100.00;101285.13;5087835;28;20020;-51
2023/03/21 08:14:28;;;;;;;36.53;12.65;;;;;;;8.90;100.00;101288.72;5092215;28;20045;-49
2023/03/21 08:16:54;;;;;;;42.45;13.63;;;;;;;8.87;100.00;101283.69;5085493;28;20218;-49
2023/03/21 08:19:20;;;;;;;33.90;12.77;;;;;;;8.89;100.00;101279.84;5074850;28;20020;-48
2023/03/21 08:21:47;;;;;;;46.33;12.38;;;;;;;8.86;100.00;101273.97;5085207;28;20020;-49
2023/03/21 08:24:12;;;;;;;28.67;10.63;;;;;;;8.92;100.00;101266.09;5088467;28;20020;-49
2023/03/21 08:26:37;;;;;;;32.30;11.02;;;;;;;9.01;100.00;101270.53;5088651;28;20047;-52
2023/03/21 08:29:03;;;;;;;35.85;10.20;;;;;;;9.13;100.00;101248.75;5093029;28;20438;-50
2023/03/21 08:31:28;;;;;;;31.00;9.82;;;;;;;9.32;100.00;101244.94;5089449;28;20028;-49
2023/03/21 08:33:54;;;;;;;36.25;10.10;;;;;;;9.60;100.00;101242.81;5078287;28;20075;-49
2023/03/21 08:36:21;;;;;;;38.22;9.88;;;;;;;9.67;100.00;101231.25;5084340;28;20077;-49
2023/03/21 08:38:47;;;;;;;27.70;11.00;;;;;;;9.78;100.00;101221.16;5073360;28;20020;-50
2023/03/21 08:41:13;;;;;;;28.80;8.82;;;;;;;10.03;100.00;101219.31;5074281;28;20035;-50
2023/03/21 08:43:39;;;;;;;27.05;8.60;;;;;;;9.86;100.00;101211.25;5068639;28;20049;-49
2023/03/21 08:46:04;;;;;;;38.10;9.35;;;;;;;9.92;100.00;101208.91;5081912;28;20426;-49
2023/03/21 08:48:30;;;;;;;28.05;9.13;;;;;;;9.92;100.00;101207.03;5086780;28;20082;-48
2023/03/21 08:50:55;;;;;;;22.08;9.27;;;;;;;10.00;100.00;101222.34;5093399;28;20500;-50
2023/03/21 08:53:20;;;;;;;31.60;10.68;;;;;;;9.93;100.00;101207.91;5086253;28;20031;-50
2023/03/21 08:55:48;;;;;;;29.70;9.80;;;;;;;9.81;100.00;101210.09;5076700;28;20094;-51
2023/03/21 08:58:13;;;;;;;39.40;10.75;;;;;;;9.98;100.00;101194.78;5084409;28;20028;-50
2023/03/21 09:00:38;;;;;;;42.53;12.35;;;;;;;10.04;100.00;101188.72;5078458;28;20454;-51
2023/03/21 09:03:04;;;;;;;33.03;11.07;;;;;;;10.10;100.00;101185.34;5083111;28;20115;-49
2023/03/21 09:05:29;;;;;;;35.17;12.05;;;;;;;10.27;100.00;101178.97;5072539;28;20070;-49
2023/03/21 09:07:55;;;;;;;39.95;13.27;;;;;;;10.30;100.00;101180.47;5080063;28;20024;-48
2023/03/21 09:10:22;;;;;;;33.28;12.00;;;;;;;10.52;100.00;101166.28;5083941;28;20044;-49
2023/03/21 09:12:49;;;;;;;38.77;13.70;;;;;;;10.52;100.00;101171.66;5075084;28;20572;-49
2023/03/21 09:15:16;;;;;;;38.25;12.75;;;;;;;10.51;100.00;101179.94;5081416;28;20024;-50
2023/03/21 09:17:42;;;;;;;39.40;12.57;;;;;;;10.29;100.00;101166.19;5079893;28;20111;-49
2023/03/21 09:20:19;;;;;;;39.10;13.02;;;;;;;10.23;100.00;101172.22;5076634;28;20115;-51
2023/03/21 09:22:49;;;;;;;37.17;12.48;;;;;;;10.19;100.00;101173.59;5086021;28;20727;-50
2023/03/21 09:25:15;;;;;;;39.95;14.20;;;;;;;10.07;100.00;101177.63;5083324;28;20364;-49
2023/03/21 09:27:42;;;;;;;36.50;13.85;;;;;;;10.11;100.00;101177.13;5085412;28;20108;-49
2023/03/21 09:30:09;;;;;;;31.50;13.30;;;;;;;10.16;100.00;101167.69;5087928;28;20039;-49
2023/03/21 09:32:35;;;;;;;35.97;14.63;;;;;;;10.16;100.00;101165.84;5075261;28;20383;-51
2023/03/21 09:35:04;;;;;;;51.05;15.10;;;;;;;10.19;100.00;101165.50;5071803;28;20068;-48
2023/03/21 09:37:31;;;;;;;41.22;14.13;;;;;;;10.32;100.00;101178.44;5075405;28;20421;-49
2023/03/21 09:39:57;;;;;;;37.65;14.20;;;;;;;10.32;100.00;101170.38;5085164;28;20040;-49
2023/03/21 09:42:31;;;;;;;52.95;15.15;;;;;;;10.34;100.00;101168.34;5088060;28;20370;-50
2023/03/21 09:45:01;;;;;;;52.83;16.60;;;;;;;10.39;100.00;101170.53;5072502;28;20434;-51
2023/03/21 09:47:33;;;;;;;55.33;15.98;;;;;;;10.46;100.00;101176.91;5087170;28;20077;-49
2023/03/21 09:50:06;;;;;;;37.00;14.48;;;;;;;10.43;100.00;101179.94;5063083;28;20048;-50
2023/03/21 09:52:47;;;;;;;38.63;13.88;;;;;;;10.48;100.00;101185.66;5081129;28;20039;-52
2023/03/21 09:55:20;;;;;;;38.60;15.18;;;;;;;10.43;100.00;101177.25;5073437;28;20582;-50
2023/03/21 09:57:48;;;;;;;42.92;15.25;;;;;;;10.47;100.00;101167.81;5061911;28;20082;-50
2023/03/21 10:00:19;;;;;;;50.30;16.40;;;;;;;10.49;100.00;101166.63;5069835;28;20142;-51
2023/03/21 10:02:48;;;;;;;42.28;13.95;;;;;;;10.52;100.00;101181.59;5067405;28;20123;-50
2023/03/21 10:05:29;;;;;;;44.03;13.68;;;;;;;10.45;100.00;101172.53;5081209;28;20086;-49
2023/03/21 10:08:22;;;;;;;50.35;15.02;;;;;;;10.41;100.00;101160.44;5065952;28;20047;-49
2023/03/21 10:10:51;;;;;;;47.30;13.63;;;;;;;10.43;100.00;101167.34;5057517;28;20033;-49
2023/03/21 10:13:21;;;;;;;44.40;15.00;;;;;;;10.43;100.00;101172.72;5072554;28;20020;-52
2023/03/21 10:15:46;;;;;;;46.22;13.65;;;;;;;10.54;100.00;101176.88;5067577;28;20456;-49
2023/03/21 10:18:23;;;;;;;43.75;14.93;;;;;;;10.63;100.00;101188.44;5083859;28;20131;-49
2023/03/21 10:20:50;;;;;;;37.20;15.20;;;;;;;10.62;100.00;101187.63;5064221;28;20408;-50
2023/03/21 10:23:18;;;;;;;46.08;15.40;;;;;;;10.53;100.00;101196.72;5070859;28;20455;-50
2023/03/21 10:25:50;;;;;;;47.35;15.00;;;;;;;10.55;100.00;101200.06;5071147;28;20025;-49
2023/03/21 10:28:28;;;;;;;40.72;15.25;;;;;;;10.66;100.00;101193.47;5054400;28;20390;-49
2023/03/21 10:30:53;;;;;;;;;;;;;;;10.59;100.00;101187.97;5054050;28;20028;-48
2023/03/21 10:33:33;;;;;;;53.67;16.75;;;;;;;10.64;100.00;101196.34;5085324;28;19927;-49
2023/03/21 10:36:02;;;;;;;42.85;15.98;;;;;;;10.54;100.00;101195.72;5066798;28;20036;-51
2023/03/21 10:38:27;;;;;;;42.50;14.32;;;;;;;10.49;100.00;101190.00;5055494;28;20447;-49
2023/03/21 10:40:53;;;;;;;44.90;16.30;;;;;;;10.38;100.00;101183.16;5071009;28;20093;-50
2023/03/21 10:43:24;;;;;;;44.20;15.93;;;;;;;10.33;100.00;101178.28;5072520;28;20039;-51
2023/03/21 10:45:50;;;;;;;53.15;16.40;;;;;;;10.31;100.00;101169.53;5083975;28;20078;-50
2023/03/21 10:48:16;;;;;;;44.53;16.75;;;;;;;10.30;100.00;101177.78;5090834;28;20459;-50
2023/03/21 10:50:42;;;;;;;62.83;17.23;;;;;;;10.38;100.00;101163.47;5080577;28;20096;-49
2023/03/21 10:53:16;;;;;;;44.72;16.05;;;;;;;10.46;100.00;101147.31;5053248;28;20035;-50
2023/03/21 10:55:42;;;;;;;45.35;15.13;;;;;;;10.59;100.00;101150.28;5071685;28;20115;-50
2023/03/21 10:58:17;;;;;;;39.40;15.50;;;;;;;10.62;100.00;101141.03;5087543;28;20396;-49
2023/03/21 11:00:44;;;;;;;39.75;16.42;;;;;;;10.69;100.00;101147.38;5091156;28;20031;-49
2023/03/21 11:03:45;;;;;;;45.58;15.07;;;;;;;10.77;100.00;101141.97;5078853;28;20077;-49
2023/03/21 11:06:25;;;;;;;37.70;15.35;;;;;;;10.64;100.00;101129.06;4969216;28;20031;-49
2023/03/21 11:08:55;;;;;;;41.45;15.52;;;;;;;10.66;100.00;101123.50;5070006;28;20122;-49
2023/03/21 11:11:26;;;;;;;47.88;16.92;;;;;;;10.73;100.00;101135.25;5059078;28;20048;-50
2023/03/21 11:13:57;;;;;;;45.42;16.98;;;;;;;10.85;100.00;101138.38;5071809;28;20036;-49